createdAt,value
2018-07-06T00:00:59.958Z,1011.68
2018-07-06T00:01:59.973Z,1011.65
2018-07-06T00:02:59.985Z,1011.66
2018-07-06T00:04:00.008Z,1011.67
2018-07-06T00:05:00.021Z,1011.68
2018-07-06T00:06:00.040Z,1011.65
2018-07-06T00:07:00.107Z,1011.67
2018-07-06T00:08:00.071Z,1011.67
2018-07-06T00:09:00.086Z,1011.68
2018-07-06T00:10:00.108Z,1011.66
2018-07-06T00:11:00.182Z,1011.67
2018-07-06T00:12:00.135Z,1011.68
2018-07-06T00:13:00.206Z,1011.66
2018-07-06T00:14:00.180Z,1011.64
2018-07-06T00:15:00.190Z,1011.64
2018-07-06T00:16:00.251Z,1011.67
2018-07-06T00:17:00.223Z,1011.64
2018-07-06T00:18:00.242Z,1011.66
2018-07-06T00:19:00.306Z,1011.59
2018-07-06T00:20:00.280Z,1011.60
2018-07-06T00:21:00.291Z,1011.62
2018-07-06T00:22:00.310Z,1011.53
2018-07-06T00:23:00.324Z,1011.65
2018-07-06T00:24:00.338Z,1011.62
2018-07-06T00:25:00.360Z,1011.62
2018-07-06T00:26:00.371Z,1011.60
2018-07-06T00:27:00.393Z,1011.60
2018-07-06T00:28:00.425Z,1011.56
2018-07-06T00:29:00.423Z,1011.58
2018-07-06T00:30:00.440Z,1011.57
2018-07-06T00:31:00.456Z,1011.59
2018-07-06T00:32:00.472Z,1011.58
2018-07-06T00:33:00.494Z,1011.58
2018-07-06T00:34:00.538Z,1011.57
2018-07-06T00:35:00.528Z,1011.56
2018-07-06T00:36:00.543Z,1011.54
2018-07-06T00:37:00.614Z,1011.57
2018-07-06T00:38:00.578Z,1011.54
2018-07-06T00:39:00.594Z,1011.54
2018-07-06T00:40:00.689Z,1011.51
2018-07-06T00:41:00.635Z,1011.50
2018-07-06T00:42:00.646Z,1011.48
2018-07-06T00:43:00.716Z,1011.48
2018-07-06T00:44:00.674Z,1011.46
2018-07-06T00:45:00.697Z,1011.48
2018-07-06T00:46:00.712Z,1011.50
2018-07-06T00:47:00.730Z,1011.50
2018-07-06T00:48:00.744Z,1011.48
2018-07-06T00:49:00.809Z,1011.41
2018-07-06T00:50:00.777Z,1011.45
2018-07-06T00:51:00.797Z,1011.45
2018-07-06T00:52:00.810Z,1011.44
2018-07-06T00:53:00.832Z,1011.50
2018-07-06T00:54:00.847Z,1011.43
2018-07-06T00:55:00.865Z,1011.43
2018-07-06T00:56:00.877Z,1011.46
2018-07-06T00:57:00.892Z,1011.47
2018-07-06T00:58:00.914Z,1011.48
2018-07-06T00:59:00.942Z,1011.44
2018-07-06T01:00:00.943Z,1011.42
2018-07-06T01:01:01.013Z,1011.46
2018-07-06T01:02:00.989Z,1011.42
2018-07-06T01:03:00.994Z,1011.45
2018-07-06T01:04:01.011Z,1011.42
2018-07-06T01:05:01.069Z,1011.41
2018-07-06T01:06:01.048Z,1011.37
2018-07-06T01:07:01.163Z,1011.38
2018-07-06T01:08:01.079Z,1011.31
2018-07-06T01:09:01.135Z,1011.31
2018-07-06T01:10:01.113Z,1011.33
2018-07-06T01:11:01.173Z,1011.31
2018-07-06T01:12:01.146Z,1011.25
2018-07-06T01:13:01.213Z,1011.22
2018-07-06T01:14:01.178Z,1011.22
2018-07-06T01:15:01.201Z,1011.21
2018-07-06T01:16:01.218Z,1011.19
2018-07-06T01:17:01.276Z,1011.12
2018-07-06T01:18:01.250Z,1011.14
2018-07-06T01:19:01.317Z,1011.09
2018-07-06T01:20:01.283Z,1011.11
2018-07-06T01:21:01.303Z,1011.06
2018-07-06T01:22:01.312Z,1011.06
2018-07-06T01:23:01.329Z,1011.02
2018-07-06T01:24:01.351Z,1011.02
2018-07-06T01:25:01.413Z,1011.01
2018-07-06T01:26:01.382Z,1011.00
2018-07-06T01:27:01.399Z,1010.98
2018-07-06T01:28:01.413Z,1011.00
2018-07-06T01:29:01.429Z,1010.95
2018-07-06T01:30:01.445Z,1010.94
2018-07-06T01:31:01.519Z,1010.95
2018-07-06T01:32:01.478Z,1010.95
2018-07-06T01:33:01.500Z,1010.91
2018-07-06T01:34:01.513Z,1010.92
2018-07-06T01:35:01.532Z,1010.96
2018-07-06T01:36:01.550Z,1010.85
2018-07-06T01:37:01.612Z,1010.88
2018-07-06T01:38:01.579Z,1010.89
2018-07-06T01:39:01.596Z,1010.81
2018-07-06T01:40:01.613Z,1010.88
2018-07-06T01:41:01.638Z,1010.81
2018-07-06T01:42:01.645Z,1010.86
2018-07-06T01:43:01.716Z,1010.82
2018-07-06T01:44:01.683Z,1010.85
2018-07-06T01:45:01.707Z,1010.85
2018-07-06T01:46:01.715Z,1010.78
2018-07-06T01:47:01.727Z,1010.89
2018-07-06T01:48:01.745Z,1010.85
2018-07-06T01:49:01.766Z,1010.80
2018-07-06T01:50:01.784Z,1010.83
2018-07-06T01:51:01.793Z,1010.76
2018-07-06T01:52:01.815Z,1010.73
2018-07-06T01:53:01.835Z,1010.75
2018-07-06T01:54:01.846Z,1010.74
2018-07-06T01:55:01.913Z,1010.72
2018-07-06T01:56:01.882Z,1010.72
2018-07-06T01:57:01.898Z,1010.73
2018-07-06T01:58:01.919Z,1010.68
2018-07-06T01:59:01.931Z,1010.58
2018-07-06T02:00:01.950Z,1010.65
2018-07-06T02:01:02.018Z,1010.63
2018-07-06T02:02:01.984Z,1010.64
2018-07-06T02:03:01.998Z,1010.64
2018-07-06T02:04:02.019Z,1010.64
2018-07-06T02:05:02.068Z,1010.58
2018-07-06T02:06:02.044Z,1010.56
2018-07-06T02:07:02.113Z,1010.58
2018-07-06T02:08:02.076Z,1010.66
2018-07-06T02:09:02.092Z,1010.64
2018-07-06T02:10:02.115Z,1010.55
2018-07-06T02:11:02.157Z,1010.58
2018-07-06T02:12:02.151Z,1010.55
2018-07-06T02:13:02.214Z,1010.53
2018-07-06T02:14:02.175Z,1010.56
2018-07-06T02:15:02.196Z,1010.54
2018-07-06T02:16:02.211Z,1010.54
2018-07-06T02:17:02.268Z,1010.57
2018-07-06T02:18:02.245Z,1010.50
2018-07-06T02:19:02.311Z,1010.57
2018-07-06T02:20:02.280Z,1010.55
2018-07-06T02:21:02.296Z,1010.61
2018-07-06T02:22:02.307Z,1010.56
2018-07-06T02:23:02.362Z,1010.54
2018-07-06T02:24:02.342Z,1010.53
2018-07-06T02:25:02.365Z,1010.51
2018-07-06T02:26:02.374Z,1010.54
2018-07-06T02:27:02.390Z,1010.48
2018-07-06T02:28:02.406Z,1010.49
2018-07-06T02:29:02.421Z,1010.42
2018-07-06T02:30:02.447Z,1010.42
2018-07-06T02:31:02.461Z,1010.41
2018-07-06T02:32:02.475Z,1010.42
2018-07-06T02:33:02.494Z,1010.39
2018-07-06T02:34:02.505Z,1010.38
2018-07-06T02:35:02.521Z,1010.38
2018-07-06T02:36:02.543Z,1010.35
2018-07-06T02:37:02.604Z,1010.38
2018-07-06T02:38:02.574Z,1010.35
2018-07-06T02:39:02.594Z,1010.36
2018-07-06T02:40:02.606Z,1010.38
2018-07-06T02:41:02.618Z,1010.33
2018-07-06T02:42:02.642Z,1010.35
2018-07-06T02:43:02.653Z,1010.33
2018-07-06T02:44:02.674Z,1010.34
2018-07-06T02:45:02.700Z,1010.34
2018-07-06T02:46:02.707Z,1010.26
2018-07-06T02:47:02.716Z,1010.28
2018-07-06T02:48:02.821Z,1010.27
2018-07-06T02:49:02.806Z,1010.26
2018-07-06T02:50:02.773Z,1010.24
2018-07-06T02:51:02.787Z,1010.26
2018-07-06T02:52:02.803Z,1010.24
2018-07-06T02:53:02.824Z,1010.25
2018-07-06T02:54:02.833Z,1010.29
2018-07-06T02:55:02.872Z,1010.27
2018-07-06T02:56:02.867Z,1010.28
2018-07-06T02:57:02.887Z,1010.27
2018-07-06T02:58:02.899Z,1010.25
2018-07-06T02:59:02.920Z,1010.24
2018-07-06T03:00:02.936Z,1010.23
2018-07-06T03:01:03.032Z,1010.22
2018-07-06T03:02:02.969Z,1010.25
2018-07-06T03:03:02.986Z,1010.23
2018-07-06T03:04:03.004Z,1010.24
2018-07-06T03:05:03.019Z,1010.27
2018-07-06T03:06:03.031Z,1010.26
2018-07-06T03:07:03.153Z,1010.20
2018-07-06T03:08:03.070Z,1010.18
2018-07-06T03:09:03.086Z,1010.19
2018-07-06T03:10:03.096Z,1010.22
2018-07-06T03:11:03.117Z,1010.16
2018-07-06T03:12:03.137Z,1010.13
2018-07-06T03:13:03.202Z,1010.11
2018-07-06T03:14:03.168Z,1010.12
2018-07-06T03:15:03.185Z,1010.10
2018-07-06T03:16:03.198Z,1010.08
2018-07-06T03:17:03.213Z,1010.07
2018-07-06T03:18:03.234Z,1010.10
2018-07-06T03:19:03.337Z,1010.06
2018-07-06T03:20:03.303Z,1010.10
2018-07-06T03:21:03.283Z,1010.07
2018-07-06T03:22:03.297Z,1010.06
2018-07-06T03:23:03.318Z,1010.02
2018-07-06T03:24:03.338Z,1010.03
2018-07-06T03:25:03.499Z,1010.04
2018-07-06T03:26:03.367Z,1010.01
2018-07-06T03:27:03.379Z,1010.00
2018-07-06T03:28:03.489Z,1009.99
2018-07-06T03:29:03.418Z,1009.99
2018-07-06T03:30:03.427Z,1010.02
2018-07-06T03:31:03.531Z,1010.01
2018-07-06T03:32:03.467Z,1009.95
2018-07-06T03:33:03.486Z,1009.96
2018-07-06T03:34:03.494Z,1010.00
2018-07-06T03:35:03.515Z,1009.94
2018-07-06T03:36:03.531Z,1009.98
2018-07-06T03:37:03.613Z,1009.96
2018-07-06T03:38:03.566Z,1009.94
2018-07-06T03:39:03.576Z,1009.91
2018-07-06T03:40:03.595Z,1009.91
2018-07-06T03:41:03.615Z,1009.91
2018-07-06T03:42:03.632Z,1009.85
2018-07-06T03:43:03.700Z,1009.97
2018-07-06T03:44:03.660Z,1009.94
2018-07-06T03:45:03.681Z,1009.98
2018-07-06T03:46:03.695Z,1009.96
2018-07-06T03:47:03.710Z,1009.93
2018-07-06T03:48:03.730Z,1009.95
2018-07-06T03:49:03.798Z,1009.96
2018-07-06T03:50:03.830Z,1009.95
2018-07-06T03:51:03.780Z,1009.92
2018-07-06T03:52:03.798Z,1009.97
2018-07-06T03:53:03.813Z,1009.95
2018-07-06T03:54:03.828Z,1010.00
2018-07-06T03:55:03.894Z,1010.01
2018-07-06T03:56:03.899Z,1009.98
2018-07-06T03:57:03.882Z,1009.97
2018-07-06T03:58:03.897Z,1009.97
2018-07-06T03:59:03.908Z,1009.97
2018-07-06T04:00:03.929Z,1009.99
2018-07-06T04:01:04.057Z,1009.96
2018-07-06T04:02:04.019Z,1009.99
2018-07-06T04:03:03.979Z,1009.99
2018-07-06T04:04:03.990Z,1010.05
2018-07-06T04:05:04.015Z,1010.05
2018-07-06T04:06:04.032Z,1010.07
2018-07-06T04:07:04.092Z,1010.07
2018-07-06T04:08:04.059Z,1010.03
2018-07-06T04:09:04.074Z,1010.08
2018-07-06T04:10:04.091Z,1010.05
2018-07-06T04:11:04.112Z,1010.09
2018-07-06T04:12:04.128Z,1010.06
2018-07-06T04:13:04.198Z,1010.07
2018-07-06T04:14:04.227Z,1010.10
2018-07-06T04:15:04.178Z,1010.15
2018-07-06T04:16:04.228Z,1010.08
2018-07-06T04:17:04.212Z,1010.11
2018-07-06T04:18:04.226Z,1010.15
2018-07-06T04:19:04.294Z,1010.14
2018-07-06T04:20:04.304Z,1010.08
2018-07-06T04:21:04.280Z,1010.11
2018-07-06T04:22:04.295Z,1010.07
2018-07-06T04:23:04.313Z,1010.08
2018-07-06T04:24:04.323Z,1010.09
2018-07-06T04:25:04.394Z,1010.11
2018-07-06T04:26:04.425Z,1010.13
2018-07-06T04:27:04.372Z,1010.14
2018-07-06T04:28:04.392Z,1010.14
2018-07-06T04:29:04.405Z,1010.13
2018-07-06T04:30:04.424Z,1010.17
2018-07-06T04:31:04.488Z,1010.18
2018-07-06T04:32:04.455Z,1010.14
2018-07-06T04:33:04.473Z,1010.14
2018-07-06T04:34:04.488Z,1010.17
2018-07-06T04:35:04.508Z,1010.19
2018-07-06T04:36:04.526Z,1010.22
2018-07-06T04:37:04.595Z,1010.24
2018-07-06T04:38:04.559Z,1010.24
2018-07-06T04:39:04.575Z,1010.26
2018-07-06T04:40:04.588Z,1010.32
2018-07-06T04:41:04.609Z,1010.31
2018-07-06T04:42:04.620Z,1010.29
2018-07-06T04:43:04.691Z,1010.31
2018-07-06T04:44:04.653Z,1010.38
2018-07-06T04:45:04.670Z,1010.34
2018-07-06T04:46:04.694Z,1010.33
2018-07-06T04:47:04.704Z,1010.38
2018-07-06T04:48:04.727Z,1010.35
2018-07-06T04:49:04.792Z,1010.37
2018-07-06T04:50:04.773Z,1010.37
2018-07-06T04:51:04.823Z,1010.37
2018-07-06T04:52:04.791Z,1010.36
2018-07-06T04:53:04.802Z,1010.36
2018-07-06T04:54:04.823Z,1010.35
2018-07-06T04:55:04.892Z,1010.36
2018-07-06T04:56:04.886Z,1010.36
2018-07-06T04:57:04.883Z,1010.31
2018-07-06T04:58:04.895Z,1010.33
2018-07-06T04:59:04.929Z,1010.32
2018-07-06T05:00:04.918Z,1010.34
2018-07-06T05:01:04.988Z,1010.32
2018-07-06T05:02:04.951Z,1010.31
2018-07-06T05:03:04.970Z,1010.33
2018-07-06T05:04:04.991Z,1010.31
2018-07-06T05:05:05.007Z,1010.40
2018-07-06T05:06:05.019Z,1010.37
2018-07-06T05:07:05.091Z,1010.37
2018-07-06T05:08:05.051Z,1010.37
2018-07-06T05:09:05.136Z,1010.38
2018-07-06T05:10:05.089Z,1010.42
2018-07-06T05:11:05.107Z,1010.42
2018-07-06T05:12:05.124Z,1010.41
2018-07-06T05:13:05.186Z,1010.43
2018-07-06T05:14:05.158Z,1010.40
2018-07-06T05:15:05.233Z,1010.39
2018-07-06T05:16:05.195Z,1010.42
2018-07-06T05:17:05.201Z,1010.42
2018-07-06T05:18:05.217Z,1010.39
2018-07-06T05:19:05.291Z,1010.37
2018-07-06T05:20:05.257Z,1010.36
2018-07-06T05:21:05.298Z,1010.34
2018-07-06T05:22:05.288Z,1010.30
2018-07-06T05:23:05.305Z,1010.28
2018-07-06T05:24:05.316Z,1010.30
2018-07-06T05:25:05.391Z,1010.29
2018-07-06T05:26:05.351Z,1010.30
2018-07-06T05:27:05.408Z,1010.36
2018-07-06T05:28:05.406Z,1010.35
2018-07-06T05:29:05.401Z,1010.31
2018-07-06T05:30:05.417Z,1010.24
2018-07-06T05:31:05.488Z,1010.29
2018-07-06T05:32:05.450Z,1010.29
2018-07-06T05:33:05.471Z,1010.25
2018-07-06T05:34:05.483Z,1010.26
2018-07-06T05:35:05.505Z,1010.25
2018-07-06T05:36:05.524Z,1010.26
2018-07-06T05:37:05.537Z,1010.24
2018-07-06T05:38:05.551Z,1010.23
2018-07-06T05:39:05.571Z,1010.23
2018-07-06T05:40:05.587Z,1010.27
2018-07-06T05:41:05.604Z,1010.24
2018-07-06T05:42:05.667Z,1010.21
2018-07-06T05:43:05.638Z,1010.17
2018-07-06T05:44:05.662Z,1010.20
2018-07-06T05:45:05.666Z,1010.21
2018-07-06T05:46:05.682Z,1010.17
2018-07-06T05:47:05.699Z,1010.11
2018-07-06T05:48:05.771Z,1010.13
2018-07-06T05:49:05.732Z,1010.20
2018-07-06T05:50:05.770Z,1010.21
2018-07-06T05:51:05.772Z,1010.22
2018-07-06T05:52:05.787Z,1010.27
2018-07-06T05:53:05.803Z,1010.25
2018-07-06T05:54:05.869Z,1010.23
2018-07-06T05:55:05.830Z,1010.25
2018-07-06T05:56:05.848Z,1010.26
2018-07-06T05:57:05.868Z,1010.26
2018-07-06T05:58:05.884Z,1010.29
2018-07-06T05:59:05.896Z,1010.29
2018-07-06T06:00:05.966Z,1010.32
2018-07-06T06:01:05.929Z,1010.29
2018-07-06T06:02:05.950Z,1010.28
2018-07-06T06:03:05.970Z,1010.31
2018-07-06T06:04:06.029Z,1010.32
2018-07-06T06:05:06.004Z,1010.34
2018-07-06T06:06:06.062Z,1010.35
2018-07-06T06:07:06.029Z,1010.31
2018-07-06T06:08:06.047Z,1010.34
2018-07-06T06:09:06.150Z,1010.31
2018-07-06T06:10:06.085Z,1010.31
2018-07-06T06:11:06.103Z,1010.36
2018-07-06T06:12:06.175Z,1010.35
2018-07-06T06:13:06.137Z,1010.39
2018-07-06T06:14:06.148Z,1010.40
2018-07-06T06:15:06.219Z,1010.41
2018-07-06T06:16:06.190Z,1010.43
2018-07-06T06:17:06.199Z,1010.44
2018-07-06T06:18:06.263Z,1010.47
2018-07-06T06:19:06.227Z,1010.45
2018-07-06T06:20:06.255Z,1010.51
2018-07-06T06:21:06.345Z,1010.49
2018-07-06T06:22:06.274Z,1010.52
2018-07-06T06:23:06.350Z,1010.51
2018-07-06T06:24:06.360Z,1010.50
2018-07-06T06:25:06.330Z,1010.48
2018-07-06T06:26:06.341Z,1010.45
2018-07-06T06:27:06.380Z,1010.47
2018-07-06T06:28:06.387Z,1010.47
2018-07-06T06:29:06.393Z,1010.45
2018-07-06T06:30:06.457Z,1010.50
2018-07-06T06:31:06.430Z,1010.50
2018-07-06T06:32:06.446Z,1010.47
2018-07-06T06:33:06.477Z,1010.52
2018-07-06T06:34:06.477Z,1010.55
2018-07-06T06:35:06.540Z,1010.56
2018-07-06T06:36:06.514Z,1010.56
2018-07-06T06:37:06.529Z,1010.60
2018-07-06T06:38:06.544Z,1010.54
2018-07-06T06:39:06.557Z,1010.53
2018-07-06T06:40:06.575Z,1010.53
2018-07-06T06:41:06.642Z,1010.56
2018-07-06T06:42:06.616Z,1010.58
2018-07-06T06:43:06.630Z,1010.59
2018-07-06T06:44:06.642Z,1010.58
2018-07-06T06:45:06.664Z,1010.49
2018-07-06T06:46:06.679Z,1010.60
2018-07-06T06:47:06.753Z,1010.51
2018-07-06T06:48:06.707Z,1010.54
2018-07-06T06:49:06.724Z,1010.57
2018-07-06T06:50:06.741Z,1010.52
2018-07-06T06:51:06.766Z,1010.55
2018-07-06T06:52:06.820Z,1010.57
2018-07-06T06:53:06.934Z,1010.60
2018-07-06T06:54:06.811Z,1010.61
2018-07-06T06:55:06.826Z,1010.61
2018-07-06T06:56:06.842Z,1010.58
2018-07-06T06:57:06.860Z,1010.60
2018-07-06T06:58:06.874Z,1010.58
2018-07-06T06:59:07.020Z,1010.54
2018-07-06T07:00:06.910Z,1010.58
2018-07-06T07:01:06.968Z,1010.54
2018-07-06T07:02:06.949Z,1010.58
2018-07-06T07:03:06.962Z,1010.54
2018-07-06T07:04:07.034Z,1010.56
2018-07-06T07:05:07.052Z,1010.58
2018-07-06T07:06:07.057Z,1010.62
2018-07-06T07:07:07.032Z,1010.60
2018-07-06T07:08:07.044Z,1010.61
2018-07-06T07:09:07.060Z,1010.64
2018-07-06T07:10:07.153Z,1010.67
2018-07-06T07:11:07.145Z,1010.68
2018-07-06T07:12:07.118Z,1010.69
2018-07-06T07:13:07.129Z,1010.68
2018-07-06T07:14:07.151Z,1010.68
2018-07-06T07:15:07.169Z,1010.70
2018-07-06T07:16:07.203Z,1010.68
2018-07-06T07:17:07.249Z,1010.71
2018-07-06T07:18:07.219Z,1010.76
2018-07-06T07:19:07.235Z,1010.74
2018-07-06T07:20:07.252Z,1010.79
2018-07-06T07:21:07.274Z,1010.81
2018-07-06T07:22:07.289Z,1010.71
2018-07-06T07:23:07.303Z,1010.78
2018-07-06T07:24:07.326Z,1010.79
2018-07-06T07:25:07.362Z,1010.80
2018-07-06T07:26:07.361Z,1010.81
2018-07-06T07:27:07.370Z,1010.88
2018-07-06T07:28:07.390Z,1010.83
2018-07-06T07:29:07.502Z,1010.85
2018-07-06T07:30:07.468Z,1010.83
2018-07-06T07:31:07.443Z,1010.74
2018-07-06T07:32:07.467Z,1010.76
2018-07-06T07:33:07.487Z,1010.79
2018-07-06T07:34:07.539Z,1010.74
2018-07-06T07:35:07.646Z,1010.80
2018-07-06T07:36:07.535Z,1010.85
2018-07-06T07:37:07.555Z,1010.75
2018-07-06T07:38:07.604Z,1010.74
2018-07-06T07:39:07.584Z,1010.67
2018-07-06T07:40:07.604Z,1010.72
2018-07-06T07:41:07.697Z,1010.75
2018-07-06T07:42:07.638Z,1010.72
2018-07-06T07:43:07.661Z,1010.77
2018-07-06T07:44:07.677Z,1010.81
2018-07-06T07:45:07.696Z,1010.72
2018-07-06T07:46:07.714Z,1010.80
2018-07-06T07:47:07.794Z,1010.79
2018-07-06T07:48:07.751Z,1010.78
2018-07-06T07:49:07.771Z,1010.72
2018-07-06T07:50:07.785Z,1010.77
2018-07-06T07:51:07.803Z,1010.75
2018-07-06T07:52:07.825Z,1010.84
2018-07-06T07:53:07.935Z,1010.89
2018-07-06T07:54:07.854Z,1010.90
2018-07-06T07:55:07.961Z,1010.88
2018-07-06T07:56:07.891Z,1010.88
2018-07-06T07:57:07.910Z,1010.98
2018-07-06T07:58:07.927Z,1010.91
2018-07-06T07:59:08.006Z,1010.94
2018-07-06T08:00:07.971Z,1010.91
2018-07-06T08:01:08.106Z,1010.92
2018-07-06T08:02:08.004Z,1010.92
2018-07-06T08:03:08.025Z,1010.94
2018-07-06T08:04:08.040Z,1010.92
2018-07-06T08:06:08.079Z,1010.88
2018-07-06T08:07:08.096Z,1010.84
2018-07-06T08:08:08.111Z,1010.85
2018-07-06T08:09:08.134Z,1010.82
2018-07-06T08:10:08.149Z,1010.88
2018-07-06T08:11:08.222Z,1010.91
2018-07-06T08:12:08.197Z,1010.88
2018-07-06T08:13:08.210Z,1010.86
2018-07-06T08:14:08.223Z,1010.92
2018-07-06T08:15:08.248Z,1010.95
2018-07-06T08:16:08.262Z,1010.95
2018-07-06T08:17:08.375Z,1011.00
2018-07-06T08:18:08.303Z,1010.96
2018-07-06T08:19:08.321Z,1010.96
2018-07-06T08:20:08.342Z,1010.91
2018-07-06T08:21:08.355Z,1010.94
2018-07-06T08:22:08.384Z,1010.84
2018-07-06T08:23:08.473Z,1010.91
2018-07-06T08:24:08.416Z,1010.91
2018-07-06T08:25:08.433Z,1010.82
2018-07-06T08:26:08.449Z,1010.88
2018-07-06T08:27:08.471Z,1010.80
2018-07-06T08:28:08.491Z,1010.82
2018-07-06T08:29:08.646Z,1010.85
2018-07-06T08:30:08.524Z,1010.84
2018-07-06T08:31:08.552Z,1010.77
2018-07-06T08:32:08.572Z,1010.88
2018-07-06T08:33:08.590Z,1010.90
2018-07-06T08:34:08.605Z,1010.89
2018-07-06T08:35:08.726Z,1010.86
2018-07-06T08:36:08.644Z,1010.90
2018-07-06T08:37:08.666Z,1010.86
2018-07-06T08:38:08.687Z,1010.89
2018-07-06T08:39:08.698Z,1010.88
2018-07-06T08:40:08.772Z,1010.88
2018-07-06T08:41:08.744Z,1010.85
2018-07-06T08:42:08.760Z,1010.85
2018-07-06T08:43:08.780Z,1010.80
2018-07-06T08:44:08.798Z,1010.78
2018-07-06T08:45:08.820Z,1010.80
2018-07-06T08:46:08.884Z,1010.80
2018-07-06T08:47:08.854Z,1010.73
2018-07-06T08:48:08.873Z,1010.77
2018-07-06T08:49:08.901Z,1010.75
2018-07-06T08:50:08.916Z,1010.74
2018-07-06T08:51:08.934Z,1010.76
2018-07-06T08:52:09.006Z,1010.80
2018-07-06T08:53:08.979Z,1010.78
2018-07-06T08:54:09.010Z,1010.70
2018-07-06T08:55:09.014Z,1010.73
2018-07-06T08:56:09.038Z,1010.69
2018-07-06T08:57:09.059Z,1010.67
2018-07-06T08:58:09.125Z,1010.66
2018-07-06T08:59:09.099Z,1010.66
2018-07-06T09:00:09.210Z,1010.67
2018-07-06T09:01:09.288Z,1010.67
2018-07-06T09:02:09.160Z,1010.69
2018-07-06T09:03:09.180Z,1010.61
2018-07-06T09:04:09.353Z,1010.58
2018-07-06T09:05:09.218Z,1010.66
2018-07-06T09:06:09.278Z,1010.61
2018-07-06T09:07:09.261Z,1010.62
2018-07-06T09:08:09.281Z,1010.59
2018-07-06T09:09:09.299Z,1010.57
2018-07-06T09:10:09.435Z,1010.60
2018-07-06T09:11:09.339Z,1010.59
2018-07-06T09:12:09.365Z,1010.57
2018-07-06T09:13:09.383Z,1010.58
2018-07-06T09:14:09.442Z,1010.58
2018-07-06T09:15:09.457Z,1010.62
2018-07-06T09:16:09.549Z,1010.62
2018-07-06T09:17:09.468Z,1010.60
2018-07-06T09:18:09.484Z,1010.61
2018-07-06T09:19:09.508Z,1010.59
2018-07-06T09:20:09.688Z,1010.64
2018-07-06T09:21:09.546Z,1010.62
2018-07-06T09:22:09.621Z,1010.65
2018-07-06T09:23:09.635Z,1010.64
2018-07-06T09:24:09.671Z,1010.68
2018-07-06T09:25:09.637Z,1010.65
2018-07-06T09:26:10.039Z,1010.61
2018-07-06T09:27:09.672Z,1010.64
2018-07-06T09:28:09.744Z,1010.68
2018-07-06T09:29:09.718Z,1010.67
2018-07-06T09:30:09.746Z,1010.66
2018-07-06T09:31:09.760Z,1010.67
2018-07-06T09:32:09.783Z,1010.65
2018-07-06T09:33:09.799Z,1010.67
2018-07-06T09:34:09.875Z,1010.62
2018-07-06T09:35:09.841Z,1010.64
2018-07-06T09:36:09.866Z,1010.65
2018-07-06T09:37:09.884Z,1010.61
2018-07-06T09:38:09.908Z,1010.66
2018-07-06T09:39:09.928Z,1010.68
2018-07-06T09:40:10.000Z,1010.67
2018-07-06T09:41:09.974Z,1010.74
2018-07-06T09:42:09.994Z,1010.70
2018-07-06T09:43:10.017Z,1010.70
2018-07-06T09:44:10.038Z,1010.68
2018-07-06T09:45:10.056Z,1010.66
2018-07-06T09:46:10.134Z,1010.68
2018-07-06T09:47:10.105Z,1010.71
2018-07-06T09:48:10.126Z,1010.69
2018-07-06T09:49:10.150Z,1010.69
2018-07-06T09:50:10.165Z,1010.68
2018-07-06T09:51:10.192Z,1010.69
2018-07-06T09:52:10.265Z,1010.79
2018-07-06T09:53:10.236Z,1010.74
2018-07-06T09:54:10.254Z,1010.79
2018-07-06T09:55:10.275Z,1010.78
2018-07-06T09:56:10.303Z,1010.74
2018-07-06T09:57:10.322Z,1010.73
2018-07-06T09:58:10.397Z,1010.70
2018-07-06T09:59:10.370Z,1010.70
2018-07-06T10:00:10.385Z,1010.65
2018-07-06T10:01:10.413Z,1010.65
2018-07-06T10:02:10.432Z,1010.64
2018-07-06T10:03:10.455Z,1010.62
2018-07-06T10:04:13.585Z,1010.61
2018-07-06T10:05:10.503Z,1010.61
2018-07-06T10:06:10.521Z,1010.64
2018-07-06T10:07:10.546Z,1010.59
2018-07-06T10:08:10.567Z,1010.60
2018-07-06T10:09:10.592Z,1010.62
2018-07-06T10:10:10.651Z,1010.61
2018-07-06T10:11:10.636Z,1010.56
2018-07-06T10:12:10.658Z,1010.62
2018-07-06T10:13:10.681Z,1010.60
2018-07-06T10:14:10.704Z,1010.59
2018-07-06T10:15:10.771Z,1010.58
2018-07-06T10:16:10.779Z,1010.62
2018-07-06T10:17:10.794Z,1010.61
2018-07-06T10:18:10.792Z,1010.62
2018-07-06T10:19:10.811Z,1010.60
2018-07-06T10:20:10.839Z,1010.58
2018-07-06T10:21:10.862Z,1010.63
2018-07-06T10:22:10.880Z,1010.64
2018-07-06T10:23:10.902Z,1010.66
2018-07-06T10:24:10.926Z,1010.69
2018-07-06T10:25:10.991Z,1010.70
2018-07-06T10:26:10.973Z,1010.65
2018-07-06T10:27:10.997Z,1010.68
2018-07-06T10:28:11.015Z,1010.66
2018-07-06T10:29:11.042Z,1010.67
2018-07-06T10:30:11.064Z,1010.67
2018-07-06T10:31:11.089Z,1010.62
2018-07-06T10:32:11.110Z,1010.61
2018-07-06T10:33:11.184Z,1010.61
2018-07-06T10:34:11.151Z,1010.64
2018-07-06T10:35:11.177Z,1010.61
2018-07-06T10:36:11.199Z,1010.55
2018-07-06T10:37:11.272Z,1010.56
2018-07-06T10:38:11.243Z,1010.55
2018-07-06T10:39:11.263Z,1010.56
2018-07-06T10:40:11.351Z,1010.57
2018-07-06T10:41:11.310Z,1010.58
2018-07-06T10:42:11.331Z,1010.58
2018-07-06T10:43:11.362Z,1010.58
2018-07-06T10:44:11.381Z,1010.57
2018-07-06T10:45:11.409Z,1010.61
2018-07-06T10:46:11.423Z,1010.59
2018-07-06T10:47:11.473Z,1010.64
2018-07-06T10:48:11.467Z,1010.56
2018-07-06T10:49:11.496Z,1010.56
2018-07-06T10:50:11.513Z,1010.55
2018-07-06T10:51:11.543Z,1010.56
2018-07-06T10:52:11.561Z,1010.48
2018-07-06T10:53:11.587Z,1010.55
2018-07-06T10:54:11.616Z,1010.56
2018-07-06T10:55:11.635Z,1010.48
2018-07-06T10:56:11.658Z,1010.41
2018-07-06T10:57:11.676Z,1010.43
2018-07-06T10:58:11.703Z,1010.44
2018-07-06T10:59:11.726Z,1010.37
2018-07-06T11:00:11.747Z,1010.46
2018-07-06T11:01:11.807Z,1010.49
2018-07-06T11:02:11.797Z,1010.46
2018-07-06T11:03:11.821Z,1010.46
2018-07-06T11:04:11.847Z,1010.47
2018-07-06T11:05:11.864Z,1010.49
2018-07-06T11:06:11.885Z,1010.39
2018-07-06T11:07:11.909Z,1010.45
2018-07-06T11:08:11.933Z,1010.46
2018-07-06T11:10:11.982Z,1010.45
2018-07-06T11:11:12.001Z,1010.41
2018-07-06T11:12:12.027Z,1010.35
2018-07-06T11:13:12.054Z,1010.34
2018-07-06T11:14:12.076Z,1010.32
2018-07-06T11:15:12.130Z,1010.33
2018-07-06T11:16:12.118Z,1010.36
2018-07-06T11:17:12.144Z,1010.30
2018-07-06T11:18:12.172Z,1010.29
2018-07-06T11:19:12.247Z,1010.37
2018-07-06T11:20:12.214Z,1010.36
2018-07-06T11:21:12.243Z,1010.33
2018-07-06T11:22:12.260Z,1010.33
2018-07-06T11:23:12.285Z,1010.35
2018-07-06T11:24:12.314Z,1010.34
2018-07-06T11:25:12.521Z,1010.30
2018-07-06T11:26:12.358Z,1010.32
2018-07-06T11:27:12.378Z,1010.30
2018-07-06T11:28:12.403Z,1010.36
2018-07-06T11:29:12.457Z,1010.36
2018-07-06T11:30:12.447Z,1010.30
2018-07-06T11:31:12.504Z,1010.29
2018-07-06T11:32:12.532Z,1010.27
2018-07-06T11:33:12.521Z,1010.24
2018-07-06T11:34:12.547Z,1010.31
2018-07-06T11:35:12.566Z,1010.22
2018-07-06T11:36:12.589Z,1010.26
2018-07-06T11:37:12.616Z,1010.25
2018-07-06T11:38:12.799Z,1010.22
2018-07-06T11:39:12.722Z,1010.21
2018-07-06T11:40:12.691Z,1010.25
2018-07-06T11:41:12.708Z,1010.21
2018-07-06T11:42:12.727Z,1010.26
2018-07-06T11:43:12.753Z,1010.29
2018-07-06T11:44:12.866Z,1010.27
2018-07-06T11:45:12.862Z,1010.29
2018-07-06T11:46:12.822Z,1010.22
2018-07-06T11:47:12.847Z,1010.24
2018-07-06T11:48:12.866Z,1010.28
2018-07-06T11:49:12.890Z,1010.32
2018-07-06T11:50:13.011Z,1010.30
2018-07-06T11:51:12.938Z,1010.30
2018-07-06T11:52:12.963Z,1010.26
2018-07-06T11:53:12.984Z,1010.27
2018-07-06T11:54:13.007Z,1010.25
2018-07-06T11:55:13.031Z,1010.30
2018-07-06T11:56:13.138Z,1010.28
2018-07-06T11:57:13.138Z,1010.26
2018-07-06T11:58:13.102Z,1010.29
2018-07-06T11:59:13.124Z,1010.27
2018-07-06T12:00:13.149Z,1010.26
2018-07-06T12:01:13.175Z,1010.26
2018-07-06T12:02:13.213Z,1010.18
2018-07-06T12:03:13.219Z,1010.22
2018-07-06T12:04:13.372Z,1010.17
2018-07-06T12:05:13.267Z,1010.14
2018-07-06T12:06:13.287Z,1010.10
2018-07-06T12:07:13.332Z,1010.15
2018-07-06T12:08:13.365Z,1010.11